Time;durP1;ratioP1;P1;durP2;ratioP2;P2;SDS_P1;SDS_P2;PMS_P1;PMS_P2;Temp;Humidity;BMP_temperature;BMP_pressure;BME280_temperature;BME280_humidity;BME280_pressure;Samples;Min_cycle;Max_cycle;Signal;HPM_P1;HPM_P2
2020/12/12 00:03:24;;;;;;;10.07;9.10;;;5.60;99.90;;;;;;10192899;29;20593;-82
2020/12/12 00:08:26;;;;;;;12.43;10.10;;;5.60;99.90;;;;;;10217714;28;20542;-82
2020/12/12 00:13:28;;;;;;;11.13;9.80;;;5.60;99.90;;;;;;10234145;29;20202;-81
2020/12/12 00:18:30;;;;;;;10.73;9.57;;;5.60;99.90;;;;;;10210803;29;20228;-81
2020/12/12 00:23:32;;;;;;;11.10;10.00;;;5.70;99.90;;;;;;10194711;29;20229;-82
2020/12/12 00:28:35;;;;;;;10.80;9.70;;;5.70;99.90;;;;;;10216838;29;20225;-82
2020/12/12 00:33:36;;;;;;;11.70;10.50;;;5.70;99.90;;;;;;10200870;29;20205;-80
2020/12/12 00:38:38;;;;;;;13.07;10.27;;;5.80;99.90;;;;;;10216805;29;20631;-82
2020/12/12 00:43:41;;;;;;;11.40;10.20;;;5.80;99.90;;;;;;10220348;29;20322;-82
2020/12/12 00:48:43;;;;;;;12.33;10.80;;;5.80;99.90;;;;;;10222513;29;20236;-81
2020/12/12 00:53:45;;;;;;;13.17;11.63;;;5.80;99.90;;;;;;10213934;29;20219;-81
2020/12/12 00:58:47;;;;;;;11.90;10.20;;;5.80;99.90;;;;;;10228684;29;20341;-82
2020/12/12 01:03:50;;;;;;;11.57;10.37;;;5.90;99.90;;;;;;10230070;29;20233;-81
2020/12/12 01:08:51;;;;;;;10.83;9.73;;;5.90;99.90;;;;;;10256354;28;20231;-81
2020/12/12 01:13:54;;;;;;;12.47;11.13;;;6.00;99.90;;;;;;10242222;29;20272;-81
2020/12/12 01:18:55;;;;;;;10.43;9.40;;;6.00;99.90;;;;;;10229775;29;20222;-81
2020/12/12 01:23:57;;;;;;;9.80;7.73;;;6.00;99.90;;;;;;10229000;29;20227;-81
2020/12/12 01:28:59;;;;;;;11.07;9.83;;;6.00;99.90;;;;;;10236322;29;20254;-81
2020/12/12 01:34:01;;;;;;;11.67;9.97;;;6.00;99.90;;;;;;10214128;28;20241;-81
2020/12/12 01:39:03;;;;;;;10.70;9.60;;;6.00;99.90;;;;;;10257806;29;20252;-82
2020/12/12 01:44:06;;;;;;;13.07;10.70;;;6.10;99.90;;;;;;10241520;29;20232;-82
2020/12/12 01:49:08;;;;;;;12.57;11.23;;;6.10;99.90;;;;;;10249509;29;20251;-81
2020/12/12 01:54:10;;;;;;;13.17;11.87;;;6.10;99.90;;;;;;10255371;29;20196;-81
2020/12/12 01:59:12;;;;;;;12.23;10.93;;;6.10;99.90;;;;;;10271395;29;20232;-81
2020/12/12 02:04:20;;;;;;;11.03;9.93;;;6.10;99.90;;;;;;10227558;29;20217;-82
2020/12/12 02:09:22;;;;;;;11.07;9.97;;;6.10;99.90;;;;;;10249999;29;20288;-81
2020/12/12 02:14:25;;;;;;;10.43;9.13;;;6.10;99.90;;;;;;10259532;29;20844;-81
2020/12/12 02:19:26;;;;;;;9.23;8.27;;;6.10;99.90;;;;;;10255239;29;20260;-81
2020/12/12 02:24:30;;;;;;;11.17;10.00;;;6.00;99.90;;;;;;10219796;29;20241;-81
2020/12/12 02:29:41;;;;;;;10.63;8.93;;;6.00;99.90;;;;;;10241844;29;20225;-82
2020/12/12 02:34:43;;;;;;;10.70;9.60;;;6.00;99.90;;;;;;10269762;29;20199;-82
2020/12/12 02:39:45;;;;;;;12.27;9.93;;;6.00;99.90;;;;;;10252389;29;20232;-82
2020/12/12 02:44:51;;;;;;;11.10;10.00;;;6.00;99.90;;;;;;10225292;29;20225;-81
2020/12/12 02:50:05;;;;;;;10.30;9.30;;;5.90;99.90;;;;;;10239349;29;20228;-81
2020/12/12 02:55:09;;;;;;;11.23;9.77;;;5.90;99.90;;;;;;10243201;29;20199;-81
2020/12/12 03:00:13;;;;;;;10.23;9.20;;;5.90;99.90;;;;;;10228792;29;20239;-81
2020/12/12 03:05:14;;;;;;;10.73;9.63;;;5.90;99.90;;;;;;10231608;29;20236;-81
2020/12/12 03:10:17;;;;;;;11.53;10.33;;;5.80;99.90;;;;;;10230485;29;20225;-82
2020/12/12 03:15:19;;;;;;;11.43;9.47;;;5.90;99.90;;;;;;10246434;29;20575;-82
2020/12/12 03:20:20;;;;;;;11.03;9.60;;;5.90;99.90;;;;;;10204462;29;20231;-81
2020/12/12 03:25:23;;;;;;;10.07;9.17;;;5.80;99.90;;;;;;10207661;29;20201;-81
2020/12/12 03:30:24;;;;;;;11.50;10.30;;;5.70;99.90;;;;;;10211735;29;20337;-81
2020/12/12 03:35:27;;;;;;;11.20;10.00;;;5.80;99.90;;;;;;10238342;29;20190;-81
2020/12/12 03:40:30;;;;;;;10.10;9.10;;;5.80;99.90;;;;;;10249774;28;20764;-82
2020/12/12 03:45:32;;;;;;;9.93;8.93;;;5.80;99.90;;;;;;10246311;29;20208;-81
2020/12/12 03:50:33;;;;;;;10.13;9.07;;;5.80;99.90;;;;;;10248491;29;20220;-81
2020/12/12 03:55:36;;;;;;;9.67;8.67;;;5.90;99.90;;;;;;10221344;29;20276;-82
2020/12/12 04:00:38;;;;;;;10.53;9.53;;;5.90;99.90;;;;;;10220575;29;20229;-82
2020/12/12 04:05:43;;;;;;;10.70;9.10;;;5.90;99.90;;;;;;10217246;29;20228;-81
2020/12/12 04:10:46;;;;;;;8.67;7.77;;;6.00;99.90;;;;;;10222294;29;20308;-81
2020/12/12 04:15:48;;;;;;;9.67;8.80;;;6.00;99.90;;;;;;10215880;29;20217;-82
2020/12/12 04:20:49;;;;;;;9.40;8.33;;;6.00;99.90;;;;;;10218441;29;20225;-82
2020/12/12 04:25:52;;;;;;;9.10;8.20;;;6.00;99.90;;;;;;10244720;29;20606;-81
2020/12/12 04:30:53;;;;;;;8.70;7.87;;;6.00;99.90;;;;;;10221207;29;20413;-82
2020/12/12 04:35:55;;;;;;;8.73;7.90;;;6.00;99.90;;;;;;10219592;29;20221;-82
2020/12/12 04:40:59;;;;;;;8.30;7.13;;;6.00;99.90;;;;;;10223321;29;20229;-81
2020/12/12 04:46:00;;;;;;;8.67;7.87;;;6.00;99.90;;;;;;10245971;29;20297;-81
2020/12/12 04:51:04;;;;;;;7.30;6.60;;;6.10;99.90;;;;;;10249301;29;20459;-81
2020/12/12 04:56:08;;;;;;;8.50;7.70;;;6.10;99.90;;;;;;10237577;29;20201;-83
2020/12/12 05:01:10;;;;;;;7.80;7.00;;;6.10;99.90;;;;;;10228892;29;20281;-82
2020/12/12 05:06:12;;;;;;;7.43;6.73;;;6.00;99.90;;;;;;10231895;29;20288;-81
2020/12/12 05:11:15;;;;;;;7.43;6.63;;;6.00;99.90;;;;;;10226004;29;20228;-82
2020/12/12 05:16:18;;;;;;;7.23;6.53;;;6.00;99.90;;;;;;10226330;29;20190;-82
2020/12/12 05:21:20;;;;;;;6.93;6.33;;;6.10;99.90;;;;;;10225596;29;20237;-81
2020/12/12 05:26:24;;;;;;;6.87;6.27;;;6.10;99.90;;;;;;10244115;29;20217;-82
2020/12/12 05:31:27;;;;;;;5.93;5.43;;;6.20;99.90;;;;;;10212629;29;20225;-82
2020/12/12 05:36:30;;;;;;;6.40;5.80;;;6.30;99.90;;;;;;10227599;29;20217;-81
2020/12/12 05:41:33;;;;;;;6.17;5.67;;;6.40;99.90;;;;;;10250484;29;20221;-82
2020/12/12 05:46:36;;;;;;;5.30;4.87;;;6.40;99.90;;;;;;10216705;29;20218;-81
2020/12/12 05:51:39;;;;;;;5.07;4.67;;;6.40;99.90;;;;;;10230225;29;20320;-83
2020/12/12 05:56:45;;;;;;;5.57;5.00;;;6.50;99.90;;;;;;10233530;29;20201;-82
2020/12/12 06:01:54;;;;;;;4.73;4.33;;;6.50;99.90;;;;;;10219803;29;20238;-82
2020/12/12 06:06:58;;;;;;;5.23;4.83;;;6.60;99.90;;;;;;10217108;29;20231;-82
2020/12/12 06:12:03;;;;;;;4.60;4.23;;;6.60;99.90;;;;;;10220079;29;20240;-81
2020/12/12 06:17:07;;;;;;;5.40;4.90;;;6.70;99.90;;;;;;10250285;29;20208;-82
2020/12/12 06:22:14;;;;;;;4.77;4.37;;;6.70;99.90;;;;;;10234830;29;20229;-81
2020/12/12 06:27:19;;;;;;;5.03;4.53;;;6.80;99.90;;;;;;10232190;29;20201;-81
2020/12/12 06:32:21;;;;;;;6.10;5.50;;;6.70;99.90;;;;;;10212651;29;20217;-82
2020/12/12 06:37:32;;;;;;;5.40;4.90;;;6.70;99.90;;;;;;10241832;29;20624;-81
2020/12/12 06:42:37;;;;;;;7.23;5.10;;;6.60;99.90;;;;;;10239578;29;20225;-82
2020/12/12 06:47:40;;;;;;;5.63;5.10;;;6.60;99.90;;;;;;10242954;29;20216;-81
2020/12/12 06:52:43;;;;;;;6.07;5.37;;;6.60;99.90;;;;;;10235354;29;20216;-81
2020/12/12 06:57:47;;;;;;;5.63;5.13;;;6.50;99.90;;;;;;10216577;29;20201;-80
2020/12/12 07:02:57;;;;;;;6.63;5.97;;;6.60;99.90;;;;;;10195034;29;20209;-81
2020/12/12 07:08:01;;;;;;;5.70;5.20;;;6.50;99.90;;;;;;10222833;29;20661;-81
2020/12/12 07:13:05;;;;;;;5.77;5.20;;;6.50;99.90;;;;;;10222304;29;20228;-81
2020/12/12 07:18:08;;;;;;;6.27;5.67;;;6.50;99.90;;;;;;10213379;29;20197;-81
2020/12/12 07:23:10;;;;;;;6.40;5.80;;;6.50;99.90;;;;;;10199471;29;20224;-81
2020/12/12 07:28:12;;;;;;;6.30;5.70;;;6.50;99.90;;;;;;10215285;29;20197;-81
2020/12/12 07:33:14;;;;;;;6.60;6.00;;;6.60;99.90;;;;;;10196140;29;20284;-82
2020/12/12 07:38:16;;;;;;;6.60;6.00;;;6.60;99.90;;;;;;10200521;29;20200;-83
2020/12/12 07:43:18;;;;;;;6.00;5.50;;;6.60;99.90;;;;;;10214495;29;20885;-82
2020/12/12 07:48:20;;;;;;;5.70;5.20;;;6.70;99.90;;;;;;10213652;29;20249;-82
2020/12/12 07:53:22;;;;;;;5.90;5.40;;;6.70;99.90;;;;;;10213035;29;20217;-80
2020/12/12 07:58:27;;;;;;;5.40;4.90;;;6.70;99.90;;;;;;10194816;29;20201;-80
2020/12/12 08:03:29;;;;;;;7.10;6.50;;;6.80;99.90;;;;;;10194906;29;20244;-81
2020/12/12 08:08:31;;;;;;;6.20;5.70;;;6.80;99.90;;;;;;10214406;29;20311;-80
2020/12/12 08:13:34;;;;;;;5.70;5.20;;;6.90;99.90;;;;;;10212341;29;20969;-80
2020/12/12 08:18:35;;;;;;;5.50;5.10;;;6.90;99.90;;;;;;10197677;29;20296;-82
2020/12/12 08:23:37;;;;;;;5.40;4.90;;;6.90;99.90;;;;;;10220098;29;20700;-79
2020/12/12 08:28:40;;;;;;;5.30;4.80;;;7.00;99.90;;;;;;10214128;29;20955;-80
2020/12/12 08:33:44;;;;;;;5.13;4.73;;;7.10;99.90;;;;;;10195562;29;20224;-82
2020/12/12 08:38:52;;;;;;;4.90;4.50;;;7.00;99.90;;;;;;10203323;29;20236;-79
2020/12/12 08:43:54;;;;;;;5.00;4.60;;;7.10;99.90;;;;;;10187830;29;20216;-81
2020/12/12 08:48:56;;;;;;;5.00;4.60;;;7.20;99.90;;;;;;10202618;29;20225;-81
2020/12/12 08:53:59;;;;;;;5.10;4.70;;;7.20;99.90;;;;;;10218730;29;20206;-81
2020/12/12 08:59:03;;;;;;;5.40;4.90;;;7.30;99.90;;;;;;10209024;29;20280;-80
2020/12/12 09:04:16;;;;;;;5.93;5.43;;;7.30;99.90;;;;;;10196506;29;20224;-80
2020/12/12 09:09:20;;;;;;;5.20;4.70;;;7.30;99.90;;;;;;10224737;29;20221;-80
2020/12/12 09:14:23;;;;;;;4.60;4.30;;;7.30;99.90;;;;;;10217791;29;20195;-81
2020/12/12 09:19:25;;;;;;;4.23;3.93;;;7.40;99.90;;;;;;10234407;29;20213;-80
2020/12/12 09:24:27;;;;;;;4.63;4.23;;;7.40;99.90;;;;;;10218447;29;20213;-79
2020/12/12 09:29:29;;;;;;;5.00;4.60;;;7.50;99.90;;;;;;10236399;29;20267;-80
2020/12/12 09:34:31;;;;;;;4.60;3.97;;;7.60;99.90;;;;;;10213958;29;20205;-81
2020/12/12 09:39:33;;;;;;;4.63;4.23;;;7.60;99.90;;;;;;10565257;23;20315;-81
2020/12/12 09:44:35;;;;;;;4.27;3.87;;;7.70;99.90;;;;;;10206909;29;20231;-82
2020/12/12 09:49:37;;;;;;;3.93;3.63;;;7.80;99.90;;;;;;10240853;28;20255;-81
2020/12/12 09:54:39;;;;;;;4.03;3.63;;;7.90;99.90;;;;;;10232447;29;20642;-82
2020/12/12 09:59:41;;;;;;;4.50;4.10;;;7.90;99.90;;;;;;10218259;28;20586;-82
2020/12/12 10:04:43;;;;;;;3.87;3.50;;;8.00;99.90;;;;;;10241366;29;20303;-81
2020/12/12 10:09:44;;;;;;;3.63;3.33;;;8.10;99.90;;;;;;10214969;29;20291;-81
2020/12/12 10:14:47;;;;;;;3.63;3.33;;;8.10;99.90;;;;;;10232942;28;20303;-81
2020/12/12 10:19:48;;;;;;;3.60;3.30;;;8.10;99.90;;;;;;10203370;29;20349;-81
2020/12/12 10:24:51;;;;;;;3.20;3.00;;;8.20;99.90;;;;;;10223159;29;20728;-81
2020/12/12 10:29:53;;;;;;;4.70;4.30;;;8.30;99.90;;;;;;10207564;29;20233;-82
2020/12/12 10:34:55;;;;;;;3.60;3.30;;;8.40;99.90;;;;;;10201952;29;20670;-81
2020/12/12 10:40:03;;;;;;;3.30;3.10;;;8.50;99.90;;;;;;10187394;29;20236;-82
2020/12/12 10:45:07;;;;;;;3.60;3.30;;;8.50;99.90;;;;;;10205523;29;20248;-82
2020/12/12 10:50:09;;;;;;;3.83;3.53;;;8.70;99.90;;;;;;10184911;29;20221;-82
2020/12/12 10:55:10;;;;;;;3.00;2.77;;;8.80;99.90;;;;;;10188922;29;20207;-83
2020/12/12 11:00:13;;;;;;;3.43;3.17;;;8.80;99.90;;;;;;10178076;29;20701;-81
2020/12/12 11:05:14;;;;;;;2.90;2.70;;;8.90;99.90;;;;;;10200203;29;20244;-82
2020/12/12 11:10:16;;;;;;;2.80;2.60;;;8.90;99.90;;;;;;10189692;29;20669;-82
2020/12/12 11:15:19;;;;;;;3.23;3.03;;;8.90;99.90;;;;;;10176109;29;20196;-83
2020/12/12 11:20:20;;;;;;;3.03;2.83;;;8.90;99.90;;;;;;10196505;29;20221;-82
2020/12/12 11:25:22;;;;;;;3.27;2.97;;;8.90;99.90;;;;;;10195869;29;20220;-82
2020/12/12 11:30:26;;;;;;;2.80;2.60;;;8.80;99.90;;;;;;10177356;29;20243;-82
2020/12/12 11:35:32;;;;;;;2.60;2.40;;;8.80;99.90;;;;;;10229983;29;20208;-81
2020/12/12 11:40:41;;;;;;;3.20;2.90;;;8.80;99.90;;;;;;10210176;29;20296;-82
2020/12/12 11:51:05;;;;;;;3.87;3.57;;;8.80;99.90;;;;;;10194937;28;20221;-81
2020/12/12 11:56:07;;;;;;;3.17;2.87;;;8.80;99.90;;;;;;10200765;29;20222;-82
2020/12/12 12:01:10;;;;;;;8.40;4.17;;;8.90;99.90;;;;;;10225024;29;20252;-82
2020/12/12 12:06:14;;;;;;;3.17;2.97;;;8.90;99.90;;;;;;10190225;29;20236;-82
2020/12/12 12:11:20;;;;;;;3.33;3.00;;;9.00;99.90;;;;;;10238004;29;20228;-82
2020/12/12 12:16:22;;;;;;;4.33;3.37;;;9.10;99.90;;;;;;10231552;29;20636;-82
2020/12/12 12:21:24;;;;;;;3.40;3.20;;;9.10;99.90;;;;;;10187653;29;20252;-82
2020/12/12 12:26:26;;;;;;;3.70;2.97;;;9.10;99.90;;;;;;10189911;29;20231;-80
2020/12/12 12:31:28;;;;;;;4.47;4.07;;;9.10;99.90;;;;;;10199481;29;20229;-82
2020/12/12 12:36:31;;;;;;;4.90;4.23;;;9.00;99.90;;;;;;10203077;29;20569;-80
2020/12/12 12:41:32;;;;;;;3.93;3.63;;;9.00;99.90;;;;;;10200206;29;20324;-82
2020/12/12 12:46:39;;;;;;;4.47;4.10;;;9.00;99.90;;;;;;10215837;29;20312;-82
2020/12/12 12:51:40;;;;;;;3.97;3.67;;;9.00;99.90;;;;;;10217950;29;20233;-80
2020/12/12 12:56:42;;;;;;;4.53;4.13;;;9.00;99.90;;;;;;10208768;23;20231;-79
2020/12/12 13:01:44;;;;;;;5.93;4.93;;;9.00;99.90;;;;;;10258538;29;20268;-82
2020/12/12 13:06:47;;;;;;;4.70;4.20;;;9.00;99.90;;;;;;10234620;29;20229;-80
2020/12/12 13:11:49;;;;;;;4.43;4.03;;;9.00;99.90;;;;;;10237484;29;20213;-82
2020/12/12 13:16:53;;;;;;;4.47;4.17;;;9.00;99.90;;;;;;10236515;29;20225;-83
2020/12/12 13:21:57;;;;;;;4.30;3.90;;;8.90;99.90;;;;;;10216457;29;20228;-83
2020/12/12 13:27:00;;;;;;;4.27;3.87;;;9.00;99.90;;;;;;10229602;29;20642;-83
2020/12/12 13:32:03;;;;;;;3.70;3.50;;;8.90;99.90;;;;;;10204530;29;20208;-83
2020/12/12 13:37:05;;;;;;;4.60;4.20;;;8.90;99.90;;;;;;10214424;29;20231;-82
2020/12/12 13:42:07;;;;;;;4.37;4.03;;;8.90;99.90;;;;;;10220287;29;20202;-83
2020/12/12 13:47:11;;;;;;;3.97;3.60;;;8.90;99.90;;;;;;10202342;29;20217;-83
2020/12/12 13:52:13;;;;;;;4.60;4.20;;;8.90;99.90;;;;;;10223790;29;20197;-82
2020/12/12 13:57:15;;;;;;;3.50;3.30;;;8.90;99.90;;;;;;10191532;29;20231;-82
2020/12/12 14:02:17;;;;;;;4.13;3.73;;;9.00;99.90;;;;;;10217260;29;20232;-82
2020/12/12 14:07:27;;;;;;;4.20;3.90;;;9.00;99.90;;;;;;10204784;29;20346;-83
2020/12/12 14:23:09;;;;;;;3.60;3.40;;;8.90;99.90;;;;;;10219265;29;20303;-83
2020/12/12 14:28:26;;;;;;;3.70;3.40;;;8.90;99.90;;;;;;10191973;29;20269;-82
2020/12/12 14:33:28;;;;;;;4.10;3.80;;;8.90;99.90;;;;;;10241720;28;20295;-83
2020/12/12 14:38:32;;;;;;;4.17;3.80;;;8.90;99.90;;;;;;10240309;29;20296;-80
2020/12/12 14:43:34;;;;;;;4.30;3.80;;;8.80;99.90;;;;;;10271384;29;20228;-82
2020/12/12 14:48:42;;;;;;;4.50;4.20;;;8.80;99.90;;;;;;10216532;29;20281;-82
2020/12/12 14:53:44;;;;;;;4.30;3.97;;;8.80;99.90;;;;;;10230635;29;20288;-83
2020/12/12 14:58:46;;;;;;;4.30;3.40;;;8.80;99.90;;;;;;10229764;29;20241;-82
2020/12/12 15:03:48;;;;;;;4.30;3.30;;;8.80;99.90;;;;;;10201213;29;20736;-82
2020/12/12 15:08:50;;;;;;;4.77;4.27;;;8.80;99.90;;;;;;10233273;29;20221;-81
2020/12/12 15:13:52;;;;;;;4.40;4.07;;;8.80;99.90;;;;;;10212472;29;20206;-83
2020/12/12 15:18:56;;;;;;;5.37;4.13;;;8.90;99.90;;;;;;10241600;29;20229;-83
2020/12/12 15:23:57;;;;;;;4.07;3.63;;;8.80;99.90;;;;;;10219125;29;20213;-82
2020/12/12 15:29:00;;;;;;;5.10;4.60;;;8.80;99.90;;;;;;10244046;28;20212;-82
2020/12/12 15:34:03;;;;;;;4.97;4.53;;;8.70;99.90;;;;;;10240458;29;20199;-83
2020/12/12 15:39:05;;;;;;;4.13;3.83;;;8.70;99.90;;;;;;10238893;29;20225;-81
2020/12/12 15:44:10;;;;;;;4.60;3.90;;;8.70;99.90;;;;;;10224917;29;20248;-83
2020/12/12 15:49:16;;;;;;;5.23;4.83;;;8.70;99.90;;;;;;10205126;29;20784;-83
2020/12/12 15:54:21;;;;;;;4.83;4.30;;;8.70;99.90;;;;;;10216036;29;20197;-83
2020/12/12 15:59:24;;;;;;;3.53;3.23;;;8.80;99.90;;;;;;10212841;29;20236;-83
2020/12/12 16:04:27;;;;;;;3.83;3.53;;;8.80;99.90;;;;;;10228477;29;20212;-83
2020/12/12 16:09:29;;;;;;;4.30;4.00;;;8.80;99.90;;;;;;10262957;29;20231;-83
2020/12/12 16:14:31;;;;;;;4.43;4.03;;;8.90;99.90;;;;;;10248040;29;20205;-82
2020/12/12 16:19:33;;;;;;;4.00;3.70;;;8.80;99.90;;;;;;10262909;29;20224;-83
2020/12/12 16:24:35;;;;;;;5.73;4.97;;;8.80;99.90;;;;;;10276434;29;20229;-83
2020/12/12 16:29:37;;;;;;;5.30;4.80;;;8.80;99.90;;;;;;10226506;29;20316;-82
2020/12/12 16:34:41;;;;;;;5.10;4.70;;;8.80;99.90;;;;;;10193632;29;20903;-81
2020/12/12 16:39:43;;;;;;;4.50;4.10;;;8.70;99.90;;;;;;10221651;29;20232;-84
2020/12/12 16:44:46;;;;;;;4.60;4.17;;;8.70;99.90;;;;;;10210298;29;20236;-83
2020/12/12 16:49:49;;;;;;;4.03;3.73;;;8.60;99.90;;;;;;10206242;29;20316;-83
2020/12/12 16:54:50;;;;;;;3.87;3.57;;;8.60;99.90;;;;;;10207142;29;20204;-83
2020/12/12 16:59:52;;;;;;;3.70;3.40;;;8.50;99.90;;;;;;10224647;29;20780;-82
2020/12/12 17:04:55;;;;;;;3.30;3.10;;;8.50;99.90;;;;;;10216977;29;20221;-83
2020/12/12 17:09:56;;;;;;;3.93;3.63;;;8.40;99.90;;;;;;10245890;29;20212;-83
2020/12/12 17:14:58;;;;;;;4.23;3.73;;;8.40;99.90;;;;;;10216933;29;20224;-82
2020/12/12 17:20:03;;;;;;;4.00;3.70;;;8.30;99.90;;;;;;10238258;29;20675;-83
2020/12/12 17:25:04;;;;;;;4.60;4.20;;;8.30;99.90;;;;;;10237173;29;20220;-83
2020/12/12 17:30:08;;;;;;;4.87;4.47;;;8.30;99.90;;;;;;10198569;29;20221;-81
2020/12/12 17:35:11;;;;;;;4.70;4.30;;;8.40;99.90;;;;;;10213843;29;20201;-82
2020/12/12 17:40:15;;;;;;;4.13;3.83;;;8.40;99.90;;;;;;10213959;29;20247;-82
2020/12/12 17:45:16;;;;;;;4.60;4.20;;;8.40;99.90;;;;;;10249380;29;20728;-80
2020/12/12 17:50:19;;;;;;;4.23;3.93;;;8.40;99.90;;;;;;10232070;28;20217;-82
2020/12/12 17:55:22;;;;;;;3.83;3.53;;;8.40;99.90;;;;;;10221699;29;20249;-83
2020/12/12 18:00:24;;;;;;;3.80;3.50;;;8.50;99.90;;;;;;10218641;29;20233;-83
2020/12/12 18:05:27;;;;;;;6.50;4.30;;;8.50;99.90;;;;;;10236522;29;20228;-82
2020/12/12 18:10:28;;;;;;;3.97;3.67;;;8.60;99.90;;;;;;10223042;29;20231;-82
2020/12/12 18:15:30;;;;;;;5.23;4.83;;;8.60;99.90;;;;;;10220762;29;20518;-83
2020/12/12 18:20:34;;;;;;;4.83;4.00;;;8.60;99.90;;;;;;10200042;29;20264;-80
2020/12/12 18:25:37;;;;;;;4.60;3.80;;;8.70;99.90;;;;;;10202795;29;20596;-83
2020/12/12 18:30:38;;;;;;;4.20;3.80;;;8.60;99.90;;;;;;10223679;29;20205;-83
2020/12/12 18:35:41;;;;;;;4.60;4.20;;;8.70;99.90;;;;;;10229790;29;20248;-83
2020/12/12 18:40:47;;;;;;;3.20;3.00;;;8.70;99.90;;;;;;10227177;29;20216;-83
2020/12/12 18:45:49;;;;;;;4.30;3.90;;;8.70;99.90;;;;;;10213596;29;20230;-83
2020/12/12 18:50:52;;;;;;;4.27;3.87;;;8.70;99.90;;;;;;10216385;29;20201;-82
2020/12/12 19:01:00;;;;;;;4.13;3.83;;;8.70;99.90;;;;;;10203502;29;20221;-80
2020/12/12 19:06:02;;;;;;;4.30;3.90;;;8.70;99.90;;;;;;10197775;29;20220;-81
2020/12/12 19:11:04;;;;;;;5.40;4.10;;;8.70;99.90;;;;;;10218478;29;20207;-81
2020/12/12 19:16:06;;;;;;;4.43;4.03;;;8.70;99.90;;;;;;10177973;29;20209;-81
2020/12/12 19:21:08;;;;;;;4.23;3.83;;;8.70;99.90;;;;;;10189810;29;20684;-81
2020/12/12 19:26:10;;;;;;;3.80;3.50;;;8.70;99.90;;;;;;10195120;29;20221;-81
2020/12/12 19:31:12;;;;;;;5.17;4.77;;;8.70;99.90;;;;;;10214444;29;20201;-81
2020/12/12 19:36:20;;;;;;;5.13;4.70;;;8.70;99.90;;;;;;10227582;29;20280;-81
2020/12/12 19:41:22;;;;;;;8.13;7.33;;;8.70;99.90;;;;;;10220439;29;20209;-81
2020/12/12 19:46:26;;;;;;;6.07;5.37;;;8.70;99.90;;;;;;10199767;29;20256;-81
2020/12/12 19:51:29;;;;;;;6.67;5.80;;;8.80;99.90;;;;;;10187687;29;20211;-81
2020/12/12 19:56:31;;;;;;;5.10;4.70;;;8.80;99.90;;;;;;10189438;29;20734;-81
2020/12/12 20:01:32;;;;;;;5.27;4.77;;;8.80;99.90;;;;;;10199985;29;20235;-81
2020/12/12 20:06:37;;;;;;;5.60;5.10;;;8.80;99.90;;;;;;10189354;29;20247;-82
2020/12/12 20:11:42;;;;;;;4.53;4.23;;;8.70;99.90;;;;;;10237088;29;20212;-79
2020/12/12 20:16:44;;;;;;;4.30;3.90;;;8.80;99.90;;;;;;10207581;29;20488;-82
2020/12/12 20:21:48;;;;;;;4.70;4.30;;;8.80;99.90;;;;;;10190759;29;20272;-81
2020/12/12 20:26:50;;;;;;;4.83;4.43;;;8.80;99.90;;;;;;10238519;29;20262;-82
2020/12/12 20:31:54;;;;;;;5.67;5.17;;;8.80;99.90;;;;;;10238664;29;20300;-82
2020/12/12 20:36:56;;;;;;;4.50;4.20;;;8.70;99.90;;;;;;10212694;29;20213;-78
2020/12/12 20:42:00;;;;;;;7.27;5.03;;;8.60;99.90;;;;;;10212636;29;20209;-80
2020/12/12 20:47:03;;;;;;;5.37;4.90;;;8.60;99.90;;;;;;10229126;29;20768;-80
2020/12/12 20:52:05;;;;;;;4.87;4.47;;;8.50;99.90;;;;;;10214360;29;20209;-79
2020/12/12 20:57:07;;;;;;;5.10;4.60;;;8.50;99.90;;;;;;10216259;29;20705;-80
2020/12/12 21:02:09;;;;;;;5.83;5.23;;;8.40;99.90;;;;;;10217595;29;20816;-80
2020/12/12 21:07:13;;;;;;;6.07;5.47;;;8.40;99.90;;;;;;10230694;29;20772;-80
2020/12/12 21:12:15;;;;;;;5.40;5.00;;;8.40;99.90;;;;;;10232793;29;20459;-79
2020/12/12 21:17:16;;;;;;;5.30;4.80;;;8.40;99.90;;;;;;10219947;29;20634;-80
2020/12/12 21:22:19;;;;;;;4.00;3.70;;;8.50;99.90;;;;;;10223410;29;20224;-80
2020/12/12 21:27:21;;;;;;;4.30;3.90;;;8.40;99.90;;;;;;10182161;29;20232;-80
2020/12/12 21:32:23;;;;;;;5.07;4.60;;;8.40;99.90;;;;;;10191582;29;20760;-80
2020/12/12 21:37:25;;;;;;;4.40;4.10;;;8.40;99.90;;;;;;10177696;29;20221;-79
2020/12/12 21:42:27;;;;;;;4.73;4.33;;;8.30;99.90;;;;;;10216050;29;20656;-81
2020/12/12 21:47:32;;;;;;;3.90;3.60;;;8.30;99.90;;;;;;10212117;29;20233;-80
2020/12/12 21:52:36;;;;;;;4.60;4.20;;;8.30;99.90;;;;;;10214555;29;20280;-80
2020/12/12 21:57:38;;;;;;;4.80;4.37;;;8.30;99.90;;;;;;10207492;29;20229;-81
2020/12/12 22:02:42;;;;;;;5.27;4.40;;;8.20;99.90;;;;;;10187217;29;20205;-81
2020/12/12 22:07:52;;;;;;;4.90;4.50;;;8.20;99.90;;;;;;10236417;28;20233;-80
2020/12/12 22:12:56;;;;;;;4.50;4.10;;;8.20;99.90;;;;;;10204287;29;20569;-80
2020/12/12 22:17:58;;;;;;;5.63;5.07;;;8.30;99.90;;;;;;10213727;29;20638;-80
2020/12/12 22:23:00;;;;;;;5.50;5.00;;;8.20;99.90;;;;;;10196562;29;20209;-82
2020/12/12 22:28:02;;;;;;;6.50;5.90;;;8.30;99.90;;;;;;10192910;29;20228;-81
2020/12/12 22:33:03;;;;;;;6.00;5.50;;;8.30;99.90;;;;;;10216840;29;20202;-82
2020/12/12 22:38:06;;;;;;;7.40;5.73;;;8.30;99.90;;;;;;10207809;28;20656;-81
2020/12/12 22:43:08;;;;;;;7.00;6.40;;;8.30;99.90;;;;;;10193651;29;20204;-81
2020/12/12 22:48:10;;;;;;;6.57;5.97;;;8.30;99.90;;;;;;10221019;29;20236;-82
2020/12/12 22:53:13;;;;;;;6.53;6.00;;;8.30;99.90;;;;;;10209041;29;20707;-81
2020/12/12 22:58:15;;;;;;;6.50;5.83;;;8.30;99.90;;;;;;10203864;29;20636;-82
2020/12/12 23:03:16;;;;;;;6.20;5.70;;;8.30;99.90;;;;;;10225216;29;20236;-81
2020/12/12 23:08:19;;;;;;;5.70;5.20;;;8.30;99.90;;;;;;10186413;29;20232;-82
2020/12/12 23:13:21;;;;;;;6.70;6.20;;;8.20;99.90;;;;;;10224718;29;21151;-81
2020/12/12 23:18:22;;;;;;;7.10;6.50;;;8.30;99.90;;;;;;10209799;29;20248;-82
2020/12/12 23:23:25;;;;;;;7.10;6.50;;;8.30;99.90;;;;;;10179124;29;20269;-82
2020/12/12 23:28:27;;;;;;;7.00;6.40;;;8.30;99.90;;;;;;10208396;29;20324;-81
2020/12/12 23:33:28;;;;;;;6.37;5.87;;;8.30;99.90;;;;;;10191779;29;20229;-82
2020/12/12 23:38:31;;;;;;;6.00;5.50;;;8.30;99.90;;;;;;10227537;29;20315;-81
2020/12/12 23:43:32;;;;;;;6.90;6.30;;;8.30;99.90;;;;;;10201350;29;20278;-82
2020/12/12 23:48:35;;;;;;;6.63;6.00;;;8.30;99.90;;;;;;10210363;29;20237;-82
2020/12/12 23:53:37;;;;;;;7.40;6.70;;;8.30;99.90;;;;;;10223564;29;20302;-81
2020/12/12 23:58:39;;;;;;;7.10;6.40;;;8.30;99.90;;;;;;10209807;29;20246;-82
